Terminal Aerodrome Forecast
Issued by NWS

Home | Current Version | Previous Version | Text Only | Print | Product List | Glossary On
Versions: 1 2 3 4 5 6 7 8 9 10 11 12 13 14 15 16 17
000
FTUS46 KSEW 241100 CCA
TAFCLM
TAF COR
KCLM 241152Z 2412/2512 VRB03KT P6SM BKN060 BKN100
     FM241700 05008KT P6SM SCT060 BKN100
     FM251000 05008KT P6SM -RA OVC045
      AMD NOT SKED=

USA.gov is the U.S. government's official web portal to all federal, state and local government web resources and services.